Sultan Atasoy — TCYG9 — position and weather

sailwx.info

Track history (hours):
 
Tides and Currents Weather Stations Pressure Air Temp Water Temp Dewpoint Dewpoint Depression Visibility Wind Speed Wind Dir Waves Ship Positions

Sultan Atasoy

Last reported at 2014-Aug-23 00:31 UTC. Time now 2014-Aug-23 09:29 UTC.
Position N 41°25' E 029°06'.

Length 109 m; draft 3.7 m.

Type: Ship. MMSI: 271040963.

Date/timePositionNaut miles runAvg speedWind from/ knotsBaromVisibWave heightAir tempDewpointWater temp
2014-Aug-23 00:31N 41°25' E 029°06'4611.3
2014-Aug-22 20:29N 42°08' E 029°26'  
2014-Aug-20 04:07N 46°34' E 031°02'0 0.0
2014-Aug-19 22:10N 46°34' E 031°02'0 0.1
2014-Aug-19 21:32N 46°34' E 031°02'6 6.2
2014-Aug-19 20:32N 46°29' E 030°57'1312.2
2014-Aug-19 19:28N 46°16' E 030°59'1111.8
2014-Aug-19 18:33N 46°07' E 031°07'29811.3
2014-Aug-18 16:04N 41°21' E 029°11'21 7.6
2014-Aug-18 13:19N 41°02' E 029°00'5 6.9
2014-Aug-18 12:33N 40°56' E 028°59'3 2.8
2014-Aug-18 11:33N 40°58' E 028°56'0 0.1
2014-Aug-18 10:22N 40°58' E 028°56'0 0.0
2014-Aug-18 09:04N 40°58' E 028°56'0 0.0
2014-Aug-18 08:04N 40°58' E 028°56'0 0.0
2014-Aug-18 07:28N 40°58' E 028°56'0 0.0
2014-Aug-18 06:22N 40°58' E 028°56'0 0.0
2014-Aug-18 05:16N 40°58' E 028°56'0 0.0
2014-Aug-18 03:28N 40°58' E 028°56'0 0.0
2014-Aug-18 02:28N 40°58' E 028°56'0 0.0
2014-Aug-18 01:10N 40°58' E 028°56'0 0.0
2014-Aug-18 00:16N 40°58' E 028°56'0 0.0
2014-Aug-17 18:28N 40°58' E 028°56'0 0.0
2014-Aug-17 17:22N 40°58' E 028°56'0 0.0
2014-Aug-17 16:28N 40°58' E 028°56'0 0.0
2014-Aug-17 15:16N 40°58' E 028°56'0 0.0
2014-Aug-17 14:22N 40°58' E 028°56'0 0.0
2014-Aug-17 13:28N 40°58' E 028°56'0 0.0
2014-Aug-17 12:28N 40°58' E 028°56'0 0.0
2014-Aug-17 11:28N 40°58' E 028°56'0 0.0
2014-Aug-17 10:28N 40°58' E 028°56'0 0.1
2014-Aug-17 09:23N 40°58' E 028°56'5 6.0
2014-Aug-17 08:33N 40°53' E 028°54'8211.3
2014-Aug-17 01:17N 40°33' E 027°09'  
2014-Aug-13 20:32N 40°48' E 028°46'1111.1
2014-Aug-13 19:33N 40°50' E 028°60'10 9.9
2014-Aug-13 18:34N 40°53' E 029°12'0 0.2
2014-Aug-13 17:29N 40°53' E 029°12'0 0.0
2014-Aug-13 16:29N 40°53' E 029°12'0 0.0
2014-Aug-13 15:29N 40°53' E 029°12'0 0.0
2014-Aug-13 14:29N 40°53' E 029°12'0 0.0
2014-Aug-13 13:29N 40°53' E 029°12'0 0.0
2014-Aug-13 12:29N 40°53' E 029°12'0 0.0
2014-Aug-13 11:29N 40°53' E 029°12'0 0.0
2014-Aug-13 10:29N 40°53' E 029°12'0 0.0
2014-Aug-13 09:29N 40°53' E 029°12'0 0.0
2014-Aug-13 08:29N 40°53' E 029°12'0 0.0
2014-Aug-13 07:29N 40°53' E 029°12'0 0.0
2014-Aug-13 05:23N 40°53' E 029°12'0 0.0
2014-Aug-13 04:29N 40°53' E 029°12'0 0.0
2014-Aug-13 03:29N 40°53' E 029°12'0 0.0
2014-Aug-13 02:29N 40°53' E 029°12'0 0.0
2014-Aug-13 01:29N 40°53' E 029°12'  
Track history (hours):
 
Tides and Currents Weather Stations Pressure Air Temp Water Temp Dewpoint Dewpoint Depression Visibility Wind Speed Wind Dir Waves Ship Positions

Sultan Atasoy

Last reported at 2014-Aug-23 00:31 UTC. Time now 2014-Aug-23 09:29 UTC.
Position N 41°25' E 029°06'.

Length 109 m; draft 3.7 m.

Type: Ship. MMSI: 271040963.

Date/timePositionNaut miles runAvg speedWind from/ knotsBaromVisibWave heightAir tempDewpointWater temp
2014-Aug-23 00:31N 41°25' E 029°06'4611.3
2014-Aug-22 20:29N 42°08' E 029°26'  
2014-Aug-20 04:07N 46°34' E 031°02'0 0.0
2014-Aug-19 22:10N 46°34' E 031°02'0 0.1
2014-Aug-19 21:32N 46°34' E 031°02'6 6.2
2014-Aug-19 20:32N 46°29' E 030°57'1312.2
2014-Aug-19 19:28N 46°16' E 030°59'1111.8
2014-Aug-19 18:33N 46°07' E 031°07'29811.3
2014-Aug-18 16:04N 41°21' E 029°11'21 7.6
2014-Aug-18 13:19N 41°02' E 029°00'5 6.9
2014-Aug-18 12:33N 40°56' E 028°59'3 2.8
2014-Aug-18 11:33N 40°58' E 028°56'0 0.1
2014-Aug-18 10:22N 40°58' E 028°56'0 0.0
2014-Aug-18 09:04N 40°58' E 028°56'0 0.0
2014-Aug-18 08:04N 40°58' E 028°56'0 0.0
2014-Aug-18 07:28N 40°58' E 028°56'0 0.0
2014-Aug-18 06:22N 40°58' E 028°56'0 0.0
2014-Aug-18 05:16N 40°58' E 028°56'0 0.0
2014-Aug-18 03:28N 40°58' E 028°56'0 0.0
2014-Aug-18 02:28N 40°58' E 028°56'0 0.0
2014-Aug-18 01:10N 40°58' E 028°56'0 0.0
2014-Aug-18 00:16N 40°58' E 028°56'0 0.0
2014-Aug-17 18:28N 40°58' E 028°56'0 0.0
2014-Aug-17 17:22N 40°58' E 028°56'0 0.0
2014-Aug-17 16:28N 40°58' E 028°56'0 0.0
2014-Aug-17 15:16N 40°58' E 028°56'0 0.0
2014-Aug-17 14:22N 40°58' E 028°56'0 0.0
2014-Aug-17 13:28N 40°58' E 028°56'0 0.0
2014-Aug-17 12:28N 40°58' E 028°56'0 0.0
2014-Aug-17 11:28N 40°58' E 028°56'0 0.0
2014-Aug-17 10:28N 40°58' E 028°56'0 0.1
2014-Aug-17 09:23N 40°58' E 028°56'5 6.0
2014-Aug-17 08:33N 40°53' E 028°54'8211.3
2014-Aug-17 01:17N 40°33' E 027°09'  
2014-Aug-13 20:32N 40°48' E 028°46'1111.1
2014-Aug-13 19:33N 40°50' E 028°60'10 9.9
2014-Aug-13 18:34N 40°53' E 029°12'0 0.2
2014-Aug-13 17:29N 40°53' E 029°12'0 0.0
2014-Aug-13 16:29N 40°53' E 029°12'0 0.0
2014-Aug-13 15:29N 40°53' E 029°12'0 0.0
2014-Aug-13 14:29N 40°53' E 029°12'0 0.0
2014-Aug-13 13:29N 40°53' E 029°12'0 0.0
2014-Aug-13 12:29N 40°53' E 029°12'0 0.0
2014-Aug-13 11:29N 40°53' E 029°12'0 0.0
2014-Aug-13 10:29N 40°53' E 029°12'0 0.0
2014-Aug-13 09:29N 40°53' E 029°12'0 0.0
2014-Aug-13 08:29N 40°53' E 029°12'0 0.0
2014-Aug-13 07:29N 40°53' E 029°12'0 0.0
2014-Aug-13 05:23N 40°53' E 029°12'0 0.0
2014-Aug-13 04:29N 40°53' E 029°12'0 0.0
2014-Aug-13 03:29N 40°53' E 029°12'0 0.0
2014-Aug-13 02:29N 40°53' E 029°12'0 0.0
2014-Aug-13 01:29N 40°53' E 029°12'  

Dump ship's entire track history